Aeroporto :
LOGIN :

Iscrizione | Disclaimer

   EN    FR    IT 

 










Sommario :    VFR   VFR Marginale   IFR   IFR Intensivo   IFR Molto Intensivo
Visibilità : 
Base nubi : 
>= 8 km
>= 3000ft
5 / 8 km
1000 / 3000 ft
1500m / 5 km
500 / 1000 ft
800 / 1500m
200 / 500 ft
< 800m
< 200 ft
Simboli :   Temporali  Nebbia  Neve Forte  Precipitazioni Forti  Vento > 20 kt
SIGMETs :   Varie  Temporali  Ghiacco  Turbolenza  Onda orograficha  Ceneri Vulcaniche






- Altitudine del aeroporto : 479 ft
- Codice IATA : DOL


LFRG - Deauville

ULTIMO METAR :
  • 301900Z AUTO 26012KT 3700 BR OVC003 09/08 Q1024 NOSIG

METARs OBSOLETI :
  • 301830Z AUTO 25012KT 3900 BR OVC003 08/08 Q1024 NOSIG
  • 301800Z AUTO 25012KT 4800 BR OVC005 08/07 Q1024 NOSIG
  • 301730Z AUTO 24008KT 4300 BR FEW003 BKN007 OVC110 06/06 Q1024 BECMG BKN003
  • 301700Z AUTO 22010KT 4400 BR BKN004 OVC100 06/06 Q1024 TEMPO 6000 NSW BECMG BKN008
  • 301630Z AUTO 22008KT 2300 BR VV/// 05/05 Q1025 BECMG 4500 -RA BKN008

TAF AMD TAF LFRG
Valido dal 30 a 17 ore il 01 a 00 ore UTC


301705Z 3017/3024 21008KT 4000 BR BKN003
TEMPO 3017/3018 BKN008
BECMG 3018/3020 25010G25KT 4500 -RA
ATIS : +33 2 31 65 65 36



MetMap, La meteo Aeronautica in un colpo d'occhio ! - Copyright ORBIFLY Dicembre 2007 - Disclaimer

ORBIFLY MET'MAP TEAM :

Programmazione e sviluppo : Alexandra Zaïnal
Concezione : Baudouin d'Aumeries
Aiuto per la programmazione : Marc-Olivier Méhu
Supporto tecnico e logistico : Manuel Goepfert
Aiuto per la traduzione : Arnaldo La Scala

Contatto : metmap@orbifly.com




FONTI E CREDITI :

   NOAA